Pewsey, United Kingdom
Current Conditions -  °F | °C
As of 6:50 AM on Monday 22 Dec 2014 (Local Time) from EGDM Reporting Station
Rain Showers Rain Showers  
Wind Chill: 54°   Ceiling: 2000
Heat Index: 54°   Visibility: 6mi
Dew Point: 50°   Wind: 15mph
Humidity: 88%   Direction: 240°WSW
Pressure: 30.09"   Gusts: NA
Location:  51.34°N, 1.77°W
Report Text: EGDM 220650Z AUTO 24013KT 9999 -SHRA SCT012/// BKN020/// BKN025/// 12/10 Q1019
Loading
Personal Weather Stations






























Interactive Weather Map New forecast layout! Learn more

10-Day Weather Forecast

Advertisements
Track Severe Weather on mobile